Weather at Washington Dulles International Airport

Public forecast

Using degrees Fahrenheit for public forecast. Weather courtesy of forecast.io.

Current aviation weather report (METAR) for Washington Dulles International Airport

Retrieved 2020/10/30 07:34 UTC (0 seconds ago):

KIAD 300734Z 34009KT 8SM -RA FEW008 OVC014 09/08 A2964 RMK AO2 P0005 T00940083

Aviation forecast (TAF) for Washington Dulles International Airport

Retrieved 2020/10/30 06:22 UTC (54 minutes ago):

TAF KIAD 300520Z 3006/3112 01008KT 6SM -SHRA BR BKN015 FM300800 35011G18KT P6SM VCSH OVC008 FM301200 35011G19KT P6SM BKN015 FM301800 34012G20KT P6SM BKN030 FM302200 33008KT P6SM SCT025